sensor_id;sensor_type;location;lat;lon;timestamp;P1;durP1;ratioP1;P2;durP2;ratioP2
59468;SDS011;45277;52.768;18.262;2023-11-19T00:00:42;69.85;;;31.40;;
59468;SDS011;45277;52.768;18.262;2023-11-19T00:02:34;57.83;;;27.98;;
59468;SDS011;45277;52.768;18.262;2023-11-19T00:04:06;65.38;;;29.52;;
59468;SDS011;45277;52.768;18.262;2023-11-19T00:05:37;65.60;;;28.63;;
59468;SDS011;45277;52.768;18.262;2023-11-19T00:07:09;65.10;;;28.98;;
59468;SDS011;45277;52.768;18.262;2023-11-19T00:08:42;67.78;;;28.08;;
59468;SDS011;45277;52.768;18.262;2023-11-19T00:10:17;58.65;;;27.33;;
59468;SDS011;45277;52.768;18.262;2023-11-19T00:11:49;61.67;;;28.65;;
59468;SDS011;45277;52.768;18.262;2023-11-19T00:13:21;60.55;;;28.50;;
59468;SDS011;45277;52.768;18.262;2023-11-19T00:14:53;57.08;;;27.80;;
59468;SDS011;45277;52.768;18.262;2023-11-19T00:16:25;68.15;;;30.02;;
59468;SDS011;45277;52.768;18.262;2023-11-19T00:17:57;67.90;;;30.88;;
59468;SDS011;45277;52.768;18.262;2023-11-19T00:19:28;78.55;;;32.80;;
59468;SDS011;45277;52.768;18.262;2023-11-19T00:21:00;68.32;;;33.60;;
59468;SDS011;45277;52.768;18.262;2023-11-19T00:22:32;69.70;;;32.45;;
59468;SDS011;45277;52.768;18.262;2023-11-19T00:24:04;67.80;;;30.70;;
59468;SDS011;45277;52.768;18.262;2023-11-19T00:25:36;64.70;;;32.20;;
59468;SDS011;45277;52.768;18.262;2023-11-19T00:27:09;73.38;;;32.92;;
59468;SDS011;45277;52.768;18.262;2023-11-19T00:28:40;67.30;;;32.25;;
59468;SDS011;45277;52.768;18.262;2023-11-19T00:30:14;68.45;;;33.00;;
59468;SDS011;45277;52.768;18.262;2023-11-19T00:31:46;77.25;;;33.17;;
59468;SDS011;45277;52.768;18.262;2023-11-19T00:33:17;70.90;;;33.03;;
59468;SDS011;45277;52.768;18.262;2023-11-19T00:34:49;65.22;;;31.73;;
59468;SDS011;45277;52.768;18.262;2023-11-19T00:36:21;76.38;;;32.58;;
59468;SDS011;45277;52.768;18.262;2023-11-19T00:37:54;69.53;;;30.55;;
59468;SDS011;45277;52.768;18.262;2023-11-19T00:39:26;64.45;;;31.38;;
59468;SDS011;45277;52.768;18.262;2023-11-19T00:40:57;69.43;;;31.52;;
59468;SDS011;45277;52.768;18.262;2023-11-19T00:42:29;64.85;;;30.77;;
59468;SDS011;45277;52.768;18.262;2023-11-19T00:44:00;61.88;;;30.27;;
59468;SDS011;45277;52.768;18.262;2023-11-19T00:45:32;63.22;;;29.77;;
59468;SDS011;45277;52.768;18.262;2023-11-19T00:47:03;63.50;;;31.20;;
59468;SDS011;45277;52.768;18.262;2023-11-19T00:48:36;56.47;;;29.58;;
59468;SDS011;45277;52.768;18.262;2023-11-19T00:50:08;64.15;;;29.23;;
59468;SDS011;45277;52.768;18.262;2023-11-19T00:51:40;61.80;;;27.83;;
59468;SDS011;45277;52.768;18.262;2023-11-19T00:53:12;56.47;;;28.85;;
59468;SDS011;45277;52.768;18.262;2023-11-19T00:54:43;60.20;;;28.63;;
59468;SDS011;45277;52.768;18.262;2023-11-19T00:56:15;60.83;;;28.65;;
59468;SDS011;45277;52.768;18.262;2023-11-19T00:57:48;53.03;;;27.08;;
59468;SDS011;45277;52.768;18.262;2023-11-19T00:59:20;67.03;;;29.42;;
59468;SDS011;45277;52.768;18.262;2023-11-19T01:00:51;62.15;;;29.13;;
59468;SDS011;45277;52.768;18.262;2023-11-19T01:02:23;61.60;;;27.83;;
59468;SDS011;45277;52.768;18.262;2023-11-19T01:03:55;60.58;;;28.77;;
59468;SDS011;45277;52.768;18.262;2023-11-19T01:05:27;59.33;;;27.45;;
59468;SDS011;45277;52.768;18.262;2023-11-19T01:06:59;55.20;;;25.60;;
59468;SDS011;45277;52.768;18.262;2023-11-19T01:08:34;52.28;;;22.77;;
59468;SDS011;45277;52.768;18.262;2023-11-19T01:10:06;54.55;;;24.80;;
59468;SDS011;45277;52.768;18.262;2023-11-19T01:11:39;50.85;;;22.88;;
59468;SDS011;45277;52.768;18.262;2023-11-19T01:13:10;52.75;;;23.95;;
59468;SDS011;45277;52.768;18.262;2023-11-19T01:14:42;52.75;;;23.40;;
59468;SDS011;45277;52.768;18.262;2023-11-19T01:16:14;43.60;;;20.60;;
59468;SDS011;45277;52.768;18.262;2023-11-19T01:17:45;50.35;;;23.02;;
59468;SDS011;45277;52.768;18.262;2023-11-19T01:19:16;44.80;;;21.70;;
59468;SDS011;45277;52.768;18.262;2023-11-19T01:20:48;49.53;;;21.88;;
59468;SDS011;45277;52.768;18.262;2023-11-19T01:22:19;49.42;;;22.23;;
59468;SDS011;45277;52.768;18.262;2023-11-19T01:23:51;45.97;;;22.48;;
59468;SDS011;45277;52.768;18.262;2023-11-19T01:25:22;51.63;;;23.35;;
59468;SDS011;45277;52.768;18.262;2023-11-19T01:26:54;48.90;;;24.05;;
59468;SDS011;45277;52.768;18.262;2023-11-19T01:28:25;46.70;;;22.55;;
59468;SDS011;45277;52.768;18.262;2023-11-19T01:29:57;56.67;;;22.70;;
59468;SDS011;45277;52.768;18.262;2023-11-19T01:31:29;51.50;;;23.60;;
59468;SDS011;45277;52.768;18.262;2023-11-19T01:33:02;49.13;;;23.17;;
59468;SDS011;45277;52.768;18.262;2023-11-19T01:34:34;56.90;;;25.60;;
59468;SDS011;45277;52.768;18.262;2023-11-19T01:36:06;59.58;;;25.05;;
59468;SDS011;45277;52.768;18.262;2023-11-19T01:37:38;48.30;;;22.23;;
59468;SDS011;45277;52.768;18.262;2023-11-19T01:39:10;49.47;;;23.33;;
59468;SDS011;45277;52.768;18.262;2023-11-19T01:40:41;50.38;;;22.23;;
59468;SDS011;45277;52.768;18.262;2023-11-19T01:42:13;53.42;;;22.85;;
59468;SDS011;45277;52.768;18.262;2023-11-19T01:43:45;51.05;;;21.92;;
59468;SDS011;45277;52.768;18.262;2023-11-19T01:45:22;47.53;;;22.35;;
59468;SDS011;45277;52.768;18.262;2023-11-19T01:47:07;46.55;;;21.50;;
59468;SDS011;45277;52.768;18.262;2023-11-19T01:48:41;45.80;;;21.67;;
59468;SDS011;45277;52.768;18.262;2023-11-19T01:50:15;46.15;;;22.58;;
59468;SDS011;45277;52.768;18.262;2023-11-19T01:51:47;39.97;;;20.88;;
59468;SDS011;45277;52.768;18.262;2023-11-19T01:53:19;41.83;;;20.20;;
59468;SDS011;45277;52.768;18.262;2023-11-19T01:54:51;41.20;;;20.10;;
59468;SDS011;45277;52.768;18.262;2023-11-19T01:56:25;37.50;;;20.33;;
59468;SDS011;45277;52.768;18.262;2023-11-19T01:57:59;39.55;;;19.13;;
59468;SDS011;45277;52.768;18.262;2023-11-19T01:59:32;40.08;;;19.05;;
59468;SDS011;45277;52.768;18.262;2023-11-19T02:01:03;39.90;;;19.75;;
59468;SDS011;45277;52.768;18.262;2023-11-19T02:02:38;42.05;;;18.42;;
59468;SDS011;45277;52.768;18.262;2023-11-19T02:04:10;40.03;;;18.40;;
59468;SDS011;45277;52.768;18.262;2023-11-19T02:05:43;38.78;;;19.88;;
59468;SDS011;45277;52.768;18.262;2023-11-19T02:07:14;36.97;;;18.85;;
59468;SDS011;45277;52.768;18.262;2023-11-19T02:08:48;43.67;;;17.33;;
59468;SDS011;45277;52.768;18.262;2023-11-19T02:10:20;38.03;;;17.77;;
59468;SDS011;45277;52.768;18.262;2023-11-19T02:11:55;31.20;;;16.30;;
59468;SDS011;45277;52.768;18.262;2023-11-19T02:13:27;37.53;;;17.30;;
59468;SDS011;45277;52.768;18.262;2023-11-19T02:14:59;35.70;;;16.60;;
59468;SDS011;45277;52.768;18.262;2023-11-19T02:16:31;34.13;;;16.48;;
59468;SDS011;45277;52.768;18.262;2023-11-19T02:18:18;32.80;;;14.98;;
59468;SDS011;45277;52.768;18.262;2023-11-19T02:19:58;31.00;;;15.63;;
59468;SDS011;45277;52.768;18.262;2023-11-19T02:21:30;29.42;;;14.80;;
59468;SDS011;45277;52.768;18.262;2023-11-19T02:23:01;27.33;;;15.35;;
59468;SDS011;45277;52.768;18.262;2023-11-19T02:24:33;32.08;;;15.13;;
59468;SDS011;45277;52.768;18.262;2023-11-19T02:26:09;29.40;;;14.65;;
59468;SDS011;45277;52.768;18.262;2023-11-19T02:29:19;29.90;;;15.60;;
59468;SDS011;45277;52.768;18.262;2023-11-19T02:30:51;31.23;;;14.15;;
59468;SDS011;45277;52.768;18.262;2023-11-19T02:32:23;33.53;;;15.15;;
59468;SDS011;45277;52.768;18.262;2023-11-19T02:33:59;35.15;;;15.48;;
59468;SDS011;45277;52.768;18.262;2023-11-19T02:35:33;32.25;;;15.15;;
59468;SDS011;45277;52.768;18.262;2023-11-19T02:37:04;33.75;;;15.05;;
59468;SDS011;45277;52.768;18.262;2023-11-19T02:38:36;30.83;;;14.77;;
59468;SDS011;45277;52.768;18.262;2023-11-19T02:40:08;33.03;;;16.17;;
59468;SDS011;45277;52.768;18.262;2023-11-19T02:41:40;32.22;;;16.70;;
59468;SDS011;45277;52.768;18.262;2023-11-19T02:43:11;31.25;;;15.88;;
59468;SDS011;45277;52.768;18.262;2023-11-19T02:44:44;35.92;;;15.73;;
59468;SDS011;45277;52.768;18.262;2023-11-19T02:46:16;31.70;;;14.45;;
59468;SDS011;45277;52.768;18.262;2023-11-19T02:47:48;32.05;;;15.52;;
59468;SDS011;45277;52.768;18.262;2023-11-19T02:49:19;34.33;;;14.73;;
59468;SDS011;45277;52.768;18.262;2023-11-19T02:50:51;31.50;;;15.00;;
59468;SDS011;45277;52.768;18.262;2023-11-19T02:52:23;27.45;;;13.43;;
59468;SDS011;45277;52.768;18.262;2023-11-19T02:53:55;31.85;;;14.70;;
59468;SDS011;45277;52.768;18.262;2023-11-19T02:55:27;33.60;;;14.95;;
59468;SDS011;45277;52.768;18.262;2023-11-19T02:57:01;29.70;;;14.80;;
59468;SDS011;45277;52.768;18.262;2023-11-19T02:58:34;29.35;;;14.07;;
59468;SDS011;45277;52.768;18.262;2023-11-19T03:00:06;25.50;;;12.73;;
59468;SDS011;45277;52.768;18.262;2023-11-19T03:01:42;26.40;;;13.70;;
59468;SDS011;45277;52.768;18.262;2023-11-19T03:03:19;25.67;;;12.75;;
59468;SDS011;45277;52.768;18.262;2023-11-19T03:04:53;23.90;;;13.07;;
59468;SDS011;45277;52.768;18.262;2023-11-19T03:06:24;28.50;;;13.15;;
59468;SDS011;45277;52.768;18.262;2023-11-19T03:07:57;25.55;;;12.95;;
59468;SDS011;45277;52.768;18.262;2023-11-19T03:09:28;23.80;;;12.52;;
59468;SDS011;45277;52.768;18.262;2023-11-19T03:11:00;24.83;;;13.00;;
59468;SDS011;45277;52.768;18.262;2023-11-19T03:12:31;23.10;;;11.85;;
59468;SDS011;45277;52.768;18.262;2023-11-19T03:14:03;22.25;;;11.88;;
59468;SDS011;45277;52.768;18.262;2023-11-19T03:15:34;20.50;;;12.02;;
59468;SDS011;45277;52.768;18.262;2023-11-19T03:17:06;26.70;;;13.82;;
59468;SDS011;45277;52.768;18.262;2023-11-19T03:18:37;24.92;;;12.93;;
59468;SDS011;45277;52.768;18.262;2023-11-19T03:20:10;22.88;;;12.95;;
59468;SDS011;45277;52.768;18.262;2023-11-19T03:21:45;23.95;;;13.20;;
59468;SDS011;45277;52.768;18.262;2023-11-19T03:23:18;24.48;;;12.23;;
59468;SDS011;45277;52.768;18.262;2023-11-19T03:24:52;27.25;;;13.50;;
59468;SDS011;45277;52.768;18.262;2023-11-19T03:26:24;26.58;;;13.70;;
59468;SDS011;45277;52.768;18.262;2023-11-19T03:27:57;24.27;;;12.27;;
59468;SDS011;45277;52.768;18.262;2023-11-19T03:29:29;23.77;;;12.00;;
59468;SDS011;45277;52.768;18.262;2023-11-19T03:31:01;24.08;;;12.73;;
59468;SDS011;45277;52.768;18.262;2023-11-19T03:32:35;28.67;;;13.43;;
59468;SDS011;45277;52.768;18.262;2023-11-19T03:34:06;34.28;;;14.00;;
59468;SDS011;45277;52.768;18.262;2023-11-19T03:35:39;25.67;;;11.75;;
59468;SDS011;45277;52.768;18.262;2023-11-19T03:37:11;23.92;;;12.35;;
59468;SDS011;45277;52.768;18.262;2023-11-19T03:38:47;21.40;;;11.93;;
59468;SDS011;45277;52.768;18.262;2023-11-19T03:40:18;22.38;;;11.95;;
59468;SDS011;45277;52.768;18.262;2023-11-19T03:41:50;24.35;;;11.95;;
59468;SDS011;45277;52.768;18.262;2023-11-19T03:43:22;22.10;;;12.38;;
59468;SDS011;45277;52.768;18.262;2023-11-19T03:44:53;21.63;;;11.50;;
59468;SDS011;45277;52.768;18.262;2023-11-19T03:46:25;21.92;;;12.13;;
59468;SDS011;45277;52.768;18.262;2023-11-19T03:47:56;24.55;;;12.48;;
59468;SDS011;45277;52.768;18.262;2023-11-19T03:49:28;22.63;;;11.50;;
59468;SDS011;45277;52.768;18.262;2023-11-19T03:50:59;25.30;;;12.15;;
59468;SDS011;45277;52.768;18.262;2023-11-19T03:52:30;19.45;;;10.45;;
59468;SDS011;45277;52.768;18.262;2023-11-19T03:54:02;25.58;;;11.98;;
59468;SDS011;45277;52.768;18.262;2023-11-19T03:55:33;25.70;;;11.85;;
59468;SDS011;45277;52.768;18.262;2023-11-19T03:57:05;23.98;;;12.07;;
59468;SDS011;45277;52.768;18.262;2023-11-19T03:58:36;23.17;;;11.57;;
59468;SDS011;45277;52.768;18.262;2023-11-19T04:00:09;22.92;;;11.55;;
59468;SDS011;45277;52.768;18.262;2023-11-19T04:01:40;23.20;;;11.90;;
59468;SDS011;45277;52.768;18.262;2023-11-19T04:03:12;24.90;;;12.48;;
59468;SDS011;45277;52.768;18.262;2023-11-19T04:04:43;23.05;;;11.95;;
59468;SDS011;45277;52.768;18.262;2023-11-19T04:06:15;19.33;;;10.43;;
59468;SDS011;45277;52.768;18.262;2023-11-19T04:07:47;25.20;;;12.00;;
59468;SDS011;45277;52.768;18.262;2023-11-19T04:09:18;21.17;;;11.82;;
59468;SDS011;45277;52.768;18.262;2023-11-19T04:10:49;21.38;;;11.93;;
59468;SDS011;45277;52.768;18.262;2023-11-19T04:12:21;21.98;;;11.32;;
59468;SDS011;45277;52.768;18.262;2023-11-19T04:13:52;23.83;;;11.25;;
59468;SDS011;45277;52.768;18.262;2023-11-19T04:15:24;22.52;;;11.43;;
59468;SDS011;45277;52.768;18.262;2023-11-19T04:16:55;22.45;;;12.43;;
59468;SDS011;45277;52.768;18.262;2023-11-19T04:18:27;23.83;;;11.10;;
59468;SDS011;45277;52.768;18.262;2023-11-19T04:19:58;20.85;;;11.73;;
59468;SDS011;45277;52.768;18.262;2023-11-19T04:21:30;23.15;;;12.60;;
59468;SDS011;45277;52.768;18.262;2023-11-19T04:23:01;27.98;;;13.68;;
59468;SDS011;45277;52.768;18.262;2023-11-19T04:24:33;26.15;;;13.38;;
59468;SDS011;45277;52.768;18.262;2023-11-19T04:26:05;25.10;;;13.07;;
59468;SDS011;45277;52.768;18.262;2023-11-19T04:27:37;26.00;;;12.73;;
59468;SDS011;45277;52.768;18.262;2023-11-19T04:29:09;26.38;;;12.07;;
59468;SDS011;45277;52.768;18.262;2023-11-19T04:30:42;23.30;;;12.07;;
59468;SDS011;45277;52.768;18.262;2023-11-19T04:32:13;24.58;;;12.30;;
59468;SDS011;45277;52.768;18.262;2023-11-19T04:33:45;23.27;;;12.93;;
59468;SDS011;45277;52.768;18.262;2023-11-19T04:35:16;28.85;;;13.75;;
59468;SDS011;45277;52.768;18.262;2023-11-19T04:36:49;25.45;;;13.63;;
59468;SDS011;45277;52.768;18.262;2023-11-19T04:38:20;20.88;;;10.82;;
59468;SDS011;45277;52.768;18.262;2023-11-19T04:39:52;22.52;;;11.80;;
59468;SDS011;45277;52.768;18.262;2023-11-19T04:41:23;25.23;;;12.07;;
59468;SDS011;45277;52.768;18.262;2023-11-19T04:42:55;24.20;;;12.02;;
59468;SDS011;45277;52.768;18.262;2023-11-19T04:44:26;22.65;;;11.90;;
59468;SDS011;45277;52.768;18.262;2023-11-19T04:45:58;26.13;;;12.70;;
59468;SDS011;45277;52.768;18.262;2023-11-19T04:47:29;24.52;;;12.27;;
59468;SDS011;45277;52.768;18.262;2023-11-19T04:49:01;25.95;;;13.30;;
59468;SDS011;45277;52.768;18.262;2023-11-19T04:50:32;21.60;;;11.85;;
59468;SDS011;45277;52.768;18.262;2023-11-19T04:52:03;23.42;;;11.35;;
59468;SDS011;45277;52.768;18.262;2023-11-19T04:53:35;21.27;;;11.02;;
59468;SDS011;45277;52.768;18.262;2023-11-19T04:55:06;22.25;;;11.60;;
59468;SDS011;45277;52.768;18.262;2023-11-19T04:56:38;24.65;;;11.82;;
59468;SDS011;45277;52.768;18.262;2023-11-19T04:58:10;19.85;;;10.57;;
59468;SDS011;45277;52.768;18.262;2023-11-19T04:59:42;22.35;;;11.13;;
59468;SDS011;45277;52.768;18.262;2023-11-19T05:01:13;21.83;;;11.88;;
59468;SDS011;45277;52.768;18.262;2023-11-19T05:02:48;24.23;;;12.27;;
59468;SDS011;45277;52.768;18.262;2023-11-19T05:04:19;27.15;;;12.18;;
59468;SDS011;45277;52.768;18.262;2023-11-19T05:05:51;19.30;;;10.40;;
59468;SDS011;45277;52.768;18.262;2023-11-19T05:07:22;23.25;;;12.10;;
59468;SDS011;45277;52.768;18.262;2023-11-19T05:08:53;24.85;;;11.23;;
59468;SDS011;45277;52.768;18.262;2023-11-19T05:10:25;24.20;;;12.23;;
59468;SDS011;45277;52.768;18.262;2023-11-19T05:11:56;24.17;;;11.13;;
59468;SDS011;45277;52.768;18.262;2023-11-19T05:13:27;25.63;;;11.57;;
59468;SDS011;45277;52.768;18.262;2023-11-19T05:14:59;23.98;;;11.75;;
59468;SDS011;45277;52.768;18.262;2023-11-19T05:16:31;24.20;;;12.50;;
59468;SDS011;45277;52.768;18.262;2023-11-19T05:18:02;26.02;;;12.98;;
59468;SDS011;45277;52.768;18.262;2023-11-19T05:19:35;22.42;;;11.98;;
59468;SDS011;45277;52.768;18.262;2023-11-19T05:21:06;19.88;;;11.13;;
59468;SDS011;45277;52.768;18.262;2023-11-19T05:22:38;21.52;;;12.02;;
59468;SDS011;45277;52.768;18.262;2023-11-19T05:24:11;22.20;;;11.40;;
59468;SDS011;45277;52.768;18.262;2023-11-19T05:25:42;23.20;;;12.18;;
59468;SDS011;45277;52.768;18.262;2023-11-19T05:27:13;28.35;;;12.85;;
59468;SDS011;45277;52.768;18.262;2023-11-19T05:28:45;23.90;;;12.18;;
59468;SDS011;45277;52.768;18.262;2023-11-19T05:30:17;19.75;;;10.73;;
59468;SDS011;45277;52.768;18.262;2023-11-19T05:31:48;22.73;;;11.55;;
59468;SDS011;45277;52.768;18.262;2023-11-19T05:33:19;23.10;;;12.50;;
59468;SDS011;45277;52.768;18.262;2023-11-19T05:34:51;27.30;;;11.32;;
59468;SDS011;45277;52.768;18.262;2023-11-19T05:36:22;23.40;;;12.13;;
59468;SDS011;45277;52.768;18.262;2023-11-19T05:37:54;23.45;;;11.82;;
59468;SDS011;45277;52.768;18.262;2023-11-19T05:39:27;25.58;;;13.10;;
59468;SDS011;45277;52.768;18.262;2023-11-19T05:40:58;22.42;;;11.43;;
59468;SDS011;45277;52.768;18.262;2023-11-19T05:42:30;27.05;;;12.25;;
59468;SDS011;45277;52.768;18.262;2023-11-19T05:44:01;22.00;;;11.65;;
59468;SDS011;45277;52.768;18.262;2023-11-19T05:45:33;28.55;;;12.65;;
59468;SDS011;45277;52.768;18.262;2023-11-19T05:47:04;25.10;;;12.88;;
59468;SDS011;45277;52.768;18.262;2023-11-19T05:48:35;21.33;;;11.55;;
59468;SDS011;45277;52.768;18.262;2023-11-19T05:50:07;23.30;;;12.25;;
59468;SDS011;45277;52.768;18.262;2023-11-19T05:51:39;25.38;;;13.32;;
59468;SDS011;45277;52.768;18.262;2023-11-19T05:53:11;26.67;;;12.93;;
59468;SDS011;45277;52.768;18.262;2023-11-19T05:54:45;20.77;;;11.63;;
59468;SDS011;45277;52.768;18.262;2023-11-19T05:56:18;26.25;;;12.77;;
59468;SDS011;45277;52.768;18.262;2023-11-19T05:57:52;27.45;;;13.43;;
59468;SDS011;45277;52.768;18.262;2023-11-19T05:59:23;22.50;;;11.65;;
59468;SDS011;45277;52.768;18.262;2023-11-19T06:00:55;22.42;;;12.07;;
59468;SDS011;45277;52.768;18.262;2023-11-19T06:02:27;28.42;;;13.50;;
59468;SDS011;45277;52.768;18.262;2023-11-19T06:03:58;29.33;;;14.25;;
59468;SDS011;45277;52.768;18.262;2023-11-19T06:05:31;29.00;;;13.82;;
59468;SDS011;45277;52.768;18.262;2023-11-19T06:07:02;26.77;;;12.75;;
59468;SDS011;45277;52.768;18.262;2023-11-19T06:08:35;28.00;;;12.38;;
59468;SDS011;45277;52.768;18.262;2023-11-19T06:10:07;24.80;;;12.52;;
59468;SDS011;45277;52.768;18.262;2023-11-19T06:11:40;27.85;;;13.43;;
59468;SDS011;45277;52.768;18.262;2023-11-19T06:13:14;27.27;;;13.48;;
59468;SDS011;45277;52.768;18.262;2023-11-19T06:14:46;27.23;;;12.27;;
59468;SDS011;45277;52.768;18.262;2023-11-19T06:16:18;23.55;;;12.48;;
59468;SDS011;45277;52.768;18.262;2023-11-19T06:17:49;25.40;;;12.65;;
59468;SDS011;45277;52.768;18.262;2023-11-19T06:19:21;23.92;;;11.45;;
59468;SDS011;45277;52.768;18.262;2023-11-19T06:20:55;24.00;;;12.52;;
59468;SDS011;45277;52.768;18.262;2023-11-19T06:22:26;23.50;;;12.75;;
59468;SDS011;45277;52.768;18.262;2023-11-19T06:23:58;21.75;;;11.65;;
59468;SDS011;45277;52.768;18.262;2023-11-19T06:25:30;25.35;;;12.50;;
59468;SDS011;45277;52.768;18.262;2023-11-19T06:27:01;24.48;;;11.93;;
59468;SDS011;45277;52.768;18.262;2023-11-19T06:28:34;25.40;;;11.95;;
59468;SDS011;45277;52.768;18.262;2023-11-19T06:30:05;23.52;;;13.02;;
59468;SDS011;45277;52.768;18.262;2023-11-19T06:31:40;24.35;;;10.15;;
59468;SDS011;45277;52.768;18.262;2023-11-19T06:33:14;22.15;;;12.35;;
59468;SDS011;45277;52.768;18.262;2023-11-19T06:34:46;25.88;;;12.82;;
59468;SDS011;45277;52.768;18.262;2023-11-19T06:36:17;28.70;;;13.77;;
59468;SDS011;45277;52.768;18.262;2023-11-19T06:37:48;31.17;;;14.00;;
59468;SDS011;45277;52.768;18.262;2023-11-19T06:39:20;25.33;;;13.63;;
59468;SDS011;45277;52.768;18.262;2023-11-19T06:40:51;25.00;;;14.75;;
59468;SDS011;45277;52.768;18.262;2023-11-19T06:42:23;29.15;;;14.27;;
59468;SDS011;45277;52.768;18.262;2023-11-19T06:43:54;27.52;;;15.15;;
59468;SDS011;45277;52.768;18.262;2023-11-19T06:45:26;25.77;;;13.52;;
59468;SDS011;45277;52.768;18.262;2023-11-19T06:46:57;25.00;;;13.48;;
59468;SDS011;45277;52.768;18.262;2023-11-19T06:48:28;26.58;;;13.23;;
59468;SDS011;45277;52.768;18.262;2023-11-19T06:50:01;27.83;;;14.45;;
59468;SDS011;45277;52.768;18.262;2023-11-19T06:51:35;25.17;;;14.32;;
59468;SDS011;45277;52.768;18.262;2023-11-19T06:53:12;30.92;;;15.32;;
59468;SDS011;45277;52.768;18.262;2023-11-19T06:54:44;28.95;;;14.80;;
59468;SDS011;45277;52.768;18.262;2023-11-19T06:56:22;26.95;;;13.80;;
59468;SDS011;45277;52.768;18.262;2023-11-19T06:57:54;26.77;;;14.45;;
59468;SDS011;45277;52.768;18.262;2023-11-19T06:59:26;32.03;;;14.50;;
59468;SDS011;45277;52.768;18.262;2023-11-19T07:00:59;27.52;;;13.43;;
59468;SDS011;45277;52.768;18.262;2023-11-19T07:02:31;26.27;;;13.63;;
59468;SDS011;45277;52.768;18.262;2023-11-19T07:04:03;31.60;;;16.00;;
59468;SDS011;45277;52.768;18.262;2023-11-19T07:05:39;27.00;;;15.82;;
59468;SDS011;45277;52.768;18.262;2023-11-19T07:07:11;35.67;;;18.05;;
59468;SDS011;45277;52.768;18.262;2023-11-19T07:08:44;30.75;;;16.88;;
59468;SDS011;45277;52.768;18.262;2023-11-19T07:10:15;38.70;;;20.48;;
59468;SDS011;45277;52.768;18.262;2023-11-19T07:11:47;40.85;;;20.95;;
59468;SDS011;45277;52.768;18.262;2023-11-19T07:13:21;38.15;;;18.98;;
59468;SDS011;45277;52.768;18.262;2023-11-19T07:14:52;33.90;;;17.05;;
59468;SDS011;45277;52.768;18.262;2023-11-19T07:16:24;27.45;;;14.35;;
59468;SDS011;45277;52.768;18.262;2023-11-19T07:17:55;36.88;;;18.02;;
59468;SDS011;45277;52.768;18.262;2023-11-19T07:19:28;32.10;;;15.48;;
59468;SDS011;45277;52.768;18.262;2023-11-19T07:21:00;26.05;;;13.02;;
59468;SDS011;45277;52.768;18.262;2023-11-19T07:22:31;26.38;;;12.82;;
59468;SDS011;45277;52.768;18.262;2023-11-19T07:24:03;35.08;;;16.13;;
59468;SDS011;45277;52.768;18.262;2023-11-19T07:25:35;25.20;;;13.15;;
59468;SDS011;45277;52.768;18.262;2023-11-19T07:27:07;28.10;;;14.95;;
59468;SDS011;45277;52.768;18.262;2023-11-19T07:28:42;33.13;;;16.35;;
59468;SDS011;45277;52.768;18.262;2023-11-19T07:30:15;29.02;;;14.88;;
59468;SDS011;45277;52.768;18.262;2023-11-19T07:31:48;23.27;;;12.35;;
59468;SDS011;45277;52.768;18.262;2023-11-19T07:33:20;24.83;;;13.95;;
59468;SDS011;45277;52.768;18.262;2023-11-19T07:34:52;28.08;;;14.00;;
59468;SDS011;45277;52.768;18.262;2023-11-19T07:36:23;25.30;;;13.02;;
59468;SDS011;45277;52.768;18.262;2023-11-19T07:37:54;29.00;;;13.98;;
59468;SDS011;45277;52.768;18.262;2023-11-19T07:39:27;27.50;;;13.88;;
59468;SDS011;45277;52.768;18.262;2023-11-19T07:40:59;22.75;;;11.18;;
59468;SDS011;45277;52.768;18.262;2023-11-19T07:42:30;27.08;;;14.40;;
59468;SDS011;45277;52.768;18.262;2023-11-19T07:44:02;26.63;;;13.45;;
59468;SDS011;45277;52.768;18.262;2023-11-19T07:45:34;21.60;;;12.45;;
59468;SDS011;45277;52.768;18.262;2023-11-19T07:47:05;24.75;;;12.80;;
59468;SDS011;45277;52.768;18.262;2023-11-19T07:48:37;24.27;;;14.02;;
59468;SDS011;45277;52.768;18.262;2023-11-19T07:50:08;29.88;;;15.20;;
59468;SDS011;45277;52.768;18.262;2023-11-19T07:51:40;26.13;;;12.85;;
59468;SDS011;45277;52.768;18.262;2023-11-19T07:53:12;24.00;;;11.85;;
59468;SDS011;45277;52.768;18.262;2023-11-19T07:54:44;25.98;;;12.95;;
59468;SDS011;45277;52.768;18.262;2023-11-19T07:56:15;21.98;;;12.70;;
59468;SDS011;45277;52.768;18.262;2023-11-19T07:57:47;23.27;;;12.60;;
59468;SDS011;45277;52.768;18.262;2023-11-19T07:59:19;37.40;;;17.20;;
59468;SDS011;45277;52.768;18.262;2023-11-19T08:00:51;33.35;;;17.25;;
59468;SDS011;45277;52.768;18.262;2023-11-19T08:02:23;30.70;;;15.18;;
59468;SDS011;45277;52.768;18.262;2023-11-19T08:03:54;34.50;;;18.48;;
59468;SDS011;45277;52.768;18.262;2023-11-19T08:05:26;37.70;;;18.92;;
59468;SDS011;45277;52.768;18.262;2023-11-19T08:06:57;39.65;;;17.10;;
59468;SDS011;45277;52.768;18.262;2023-11-19T08:08:28;38.15;;;15.30;;
59468;SDS011;45277;52.768;18.262;2023-11-19T08:10:00;37.80;;;16.45;;
59468;SDS011;45277;52.768;18.262;2023-11-19T08:11:33;33.80;;;15.52;;
59468;SDS011;45277;52.768;18.262;2023-11-19T08:13:04;30.88;;;15.07;;
59468;SDS011;45277;52.768;18.262;2023-11-19T08:14:36;28.13;;;14.10;;
59468;SDS011;45277;52.768;18.262;2023-11-19T08:16:08;33.22;;;15.70;;
59468;SDS011;45277;52.768;18.262;2023-11-19T08:17:40;27.80;;;13.10;;
59468;SDS011;45277;52.768;18.262;2023-11-19T08:19:11;27.63;;;15.00;;
59468;SDS011;45277;52.768;18.262;2023-11-19T08:20:43;28.33;;;13.82;;
59468;SDS011;45277;52.768;18.262;2023-11-19T08:22:16;28.55;;;14.38;;
59468;SDS011;45277;52.768;18.262;2023-11-19T08:23:47;27.02;;;14.13;;
59468;SDS011;45277;52.768;18.262;2023-11-19T08:25:19;23.80;;;13.02;;
59468;SDS011;45277;52.768;18.262;2023-11-19T08:26:50;30.33;;;16.27;;
59468;SDS011;45277;52.768;18.262;2023-11-19T08:28:21;31.25;;;14.82;;
59468;SDS011;45277;52.768;18.262;2023-11-19T08:29:54;31.20;;;15.15;;
59468;SDS011;45277;52.768;18.262;2023-11-19T08:31:28;30.75;;;14.40;;
59468;SDS011;45277;52.768;18.262;2023-11-19T08:33:00;29.08;;;15.43;;
59468;SDS011;45277;52.768;18.262;2023-11-19T08:34:33;26.23;;;15.40;;
59468;SDS011;45277;52.768;18.262;2023-11-19T08:36:05;28.27;;;14.02;;
59468;SDS011;45277;52.768;18.262;2023-11-19T08:37:37;30.40;;;15.18;;
59468;SDS011;45277;52.768;18.262;2023-11-19T08:39:09;30.60;;;15.77;;
59468;SDS011;45277;52.768;18.262;2023-11-19T08:40:41;24.30;;;12.88;;
59468;SDS011;45277;52.768;18.262;2023-11-19T08:42:13;29.88;;;15.95;;
59468;SDS011;45277;52.768;18.262;2023-11-19T08:43:46;25.73;;;14.02;;
59468;SDS011;45277;52.768;18.262;2023-11-19T08:45:17;30.48;;;14.02;;
59468;SDS011;45277;52.768;18.262;2023-11-19T08:46:49;28.75;;;16.15;;
59468;SDS011;45277;52.768;18.262;2023-11-19T08:48:21;30.25;;;16.42;;
59468;SDS011;45277;52.768;18.262;2023-11-19T08:49:52;36.80;;;17.50;;
59468;SDS011;45277;52.768;18.262;2023-11-19T08:51:24;29.17;;;14.95;;
59468;SDS011;45277;52.768;18.262;2023-11-19T08:52:56;29.20;;;15.25;;